Time;durP1;ratioP1;P1;durP2;ratioP2;P2;SDS_P1;SDS_P2;PMS_P1;PMS_P2;Temp;Humidity;BMP_temperature;BMP_pressure;BME280_temperature;BME280_humidity;BME280_pressure;Samples;Min_cycle;Max_cycle;Signal;HPM_P1;HPM_P2
2023/05/07 00:02:15;;;;;;;5.50;5.07;;;;;;;13.72;82.18;95082.69;5031565;28;20430;-82
2023/05/07 00:04:41;;;;;;;5.53;5.03;;;;;;;13.78;82.17;95079.47;5031035;28;20512;-82
2023/05/07 00:07:08;;;;;;;6.40;5.73;;;;;;;13.75;81.61;95087.66;4998529;28;20504;-82
2023/05/07 00:09:35;;;;;;;6.20;5.70;;;;;;;13.71;81.81;95088.94;5031151;28;20479;-82
2023/05/07 00:12:02;;;;;;;7.07;5.70;;;;;;;13.54;82.13;95093.97;5031564;28;20868;-82
2023/05/07 00:14:29;;;;;;;10.73;7.30;;;;;;;13.53;82.75;95089.69;5030870;28;20879;-82
2023/05/07 00:16:57;;;;;;;11.27;6.03;;;;;;;13.55;82.87;95094.81;5030804;28;20840;-82
2023/05/07 00:19:23;;;;;;;6.33;5.83;;;;;;;13.55;82.98;95100.06;5030822;28;20521;-82
2023/05/07 00:21:53;;;;;;;8.80;7.90;;;;;;;13.45;83.41;95101.91;5030858;28;20468;-82
2023/05/07 00:24:19;;;;;;;7.00;6.30;;;;;;;13.30;83.30;95093.63;5031155;28;20967;-81
2023/05/07 00:26:46;;;;;;;6.47;5.93;;;;;;;13.29;84.00;95086.69;4998616;28;20837;-82
2023/05/07 00:29:13;;;;;;;6.80;6.20;;;;;;;13.28;85.30;95092.91;4998608;28;20443;-81
2023/05/07 00:31:40;;;;;;;6.57;5.97;;;;;;;13.31;83.76;95100.56;5030757;28;20427;-81
2023/05/07 00:34:08;;;;;;;6.77;6.00;;;;;;;13.06;83.67;95098.50;5030694;28;20447;-81
2023/05/07 00:36:35;;;;;;;7.83;5.93;;;;;;;13.10;84.18;95102.50;5030998;28;20507;-81
2023/05/07 00:39:03;;;;;;;6.30;5.70;;;;;;;13.00;84.03;95102.47;5034292;28;20474;-81
2023/05/07 00:41:30;;;;;;;7.57;6.83;;;;;;;12.73;85.41;95103.22;5034455;28;20441;-82
2023/05/07 00:43:57;;;;;;;9.53;6.73;;;;;;;12.77;86.96;95104.59;4985957;28;20618;-81
2023/05/07 00:46:24;;;;;;;8.50;6.97;;;;;;;12.54;86.52;95104.00;5034340;28;20439;-82
2023/05/07 00:48:52;;;;;;;8.80;7.17;;;;;;;12.53;88.33;95102.34;5033934;28;20475;-82
2023/05/07 00:51:20;;;;;;;10.40;8.27;;;;;;;12.56;87.56;95103.88;4985449;28;20490;-81
2023/05/07 00:53:47;;;;;;;10.70;8.40;;;;;;;12.55;87.88;95103.03;5034075;28;20915;-82
2023/05/07 00:56:14;;;;;;;16.57;8.60;;;;;;;12.55;87.90;95107.47;5034356;28;20453;-82
2023/05/07 00:58:41;;;;;;;12.77;8.70;;;;;;;12.53;87.23;95106.78;5033782;28;20451;-81
2023/05/07 01:01:08;;;;;;;9.60;8.67;;;;;;;12.52;87.41;95105.13;5033359;28;20951;-82
2023/05/07 01:03:35;;;;;;;10.37;9.40;;;;;;;12.53;87.33;95101.50;5033189;28;20554;-81
2023/05/07 01:06:03;;;;;;;10.07;9.03;;;;;;;12.58;86.80;95110.66;5033328;28;20444;-82
2023/05/07 01:08:34;;;;;;;10.00;9.00;;;;;;;12.60;87.04;95115.78;5033383;28;20443;-81
2023/05/07 01:11:01;;;;;;;12.50;9.47;;;;;;;12.65;86.85;95110.94;5033279;28;20447;-82
2023/05/07 01:13:29;;;;;;;11.20;7.07;;;;;;;12.66;87.79;95118.69;5033454;28;20942;-81
2023/05/07 01:15:56;;;;;;;8.07;6.73;;;;;;;12.69;87.22;95114.97;5034516;28;20444;-81
2023/05/07 01:18:23;;;;;;;6.87;6.27;;;;;;;12.65;87.90;95114.41;5033794;28;20432;-82
2023/05/07 01:20:50;;;;;;;7.97;6.67;;;;;;;12.59;88.26;95106.22;5034209;28;20569;-82
2023/05/07 01:23:19;;;;;;;8.33;7.20;;;;;;;12.55;88.61;95104.84;5033608;28;20434;-81
2023/05/07 01:25:52;;;;;;;8.87;7.97;;;;;;;12.48;88.97;95101.09;5035485;28;20457;-82
2023/05/07 01:28:19;;;;;;;11.77;6.50;;;;;;;12.34;89.94;95097.88;5075786;28;20558;-82
2023/05/07 01:31:02;;;;;;;12.70;8.50;;;;;;;12.27;89.95;95104.66;5075799;28;20494;-82
2023/05/07 01:33:32;;;;;;;12.30;8.93;;;;;;;12.07;90.78;95106.38;5075370;28;20480;-81
2023/05/07 01:36:02;;;;;;;10.03;7.60;;;;;;;12.01;92.77;95101.66;5075732;28;20451;-81
2023/05/07 01:38:31;;;;;;;8.90;7.60;;;;;;;12.09;92.67;95101.00;5075320;28;20520;-82
2023/05/07 01:40:58;;;;;;;9.63;8.20;;;;;;;12.11;91.97;95091.16;5075166;28;20881;-81
2023/05/07 01:43:44;;;;;;;8.70;7.80;;;;;;;12.07;92.48;95095.03;5075540;28;20429;-81
2023/05/07 01:46:12;;;;;;;13.70;7.83;;;;;;;11.98;92.94;95096.69;5040268;28;20503;-81
2023/05/07 01:48:40;;;;;;;11.13;7.20;;;;;;;11.96;93.60;95088.09;5075370;28;20481;-81
2023/05/07 01:51:09;;;;;;;8.53;7.63;;;;;;;11.99;93.88;95092.25;5040533;28;20446;-81
2023/05/07 01:53:43;;;;;;;10.90;8.30;;;;;;;11.98;93.91;95093.22;5076190;28;20503;-81
2023/05/07 01:56:10;;;;;;;9.50;8.60;;;;;;;12.05;95.23;95089.06;5040713;28;20449;-82
2023/05/07 01:58:36;;;;;;;8.90;7.67;;;;;;;12.13;94.48;95081.34;5075333;28;20495;-82
2023/05/07 02:01:03;;;;;;;10.20;9.20;;;;;;;12.07;95.23;95074.81;5075402;28;20469;-81
2023/05/07 02:03:30;;;;;;;14.30;9.67;;;;;;;12.10;95.11;95078.97;5075290;28;20433;-81
2023/05/07 02:05:57;;;;;;;10.80;9.77;;;;;;;12.12;94.65;95076.22;5075126;28;20463;-81
2023/05/07 02:08:23;;;;;;;11.60;9.77;;;;;;;12.10;95.09;95073.72;5075588;28;20795;-81
2023/05/07 02:20:56;;;;;;;12.47;11.17;;;;;;;11.99;93.56;95055.44;5074780;28;20473;-81
2023/05/07 02:23:23;;;;;;;14.10;9.63;;;;;;;11.87;94.16;95046.84;5074881;28;20434;-81
2023/05/07 02:25:50;;;;;;;13.53;10.80;;;;;;;11.77;94.82;95052.00;5074419;28;20440;-81
2023/05/07 02:28:17;;;;;;;11.77;9.10;;;;;;;11.74;94.45;95051.44;5074737;28;20428;-81
2023/05/07 02:30:43;;;;;;;11.13;9.10;;;;;;;11.74;95.70;95052.28;5074674;28;20452;-81
2023/05/07 02:33:12;;;;;;;12.63;8.67;;;;;;;11.79;95.10;95055.38;5074540;28;20444;-81
2023/05/07 02:35:39;;;;;;;13.20;8.80;;;;;;;11.72;95.63;95063.88;5074267;28;20781;-81
2023/05/07 02:38:07;;;;;;;10.87;9.50;;;;;;;11.84;95.06;95062.00;5039349;28;20453;-81
2023/05/07 02:40:38;;;;;;;11.20;10.10;;;;;;;11.92;95.15;95060.41;5074400;28;20530;-82
2023/05/07 02:43:05;;;;;;;10.90;9.60;;;;;;;12.00;94.69;95065.81;5074448;28;20424;-81
2023/05/07 02:45:32;;;;;;;11.13;9.50;;;;;;;12.09;93.77;95057.09;5074293;28;20429;-82
2023/05/07 02:47:58;;;;;;;9.57;8.73;;;;;;;12.12;94.07;95053.38;5074362;28;20513;-82
2023/05/07 02:50:26;;;;;;;13.17;10.70;;;;;;;12.08;93.62;95052.81;5074432;28;20499;-82
2023/05/07 02:52:53;;;;;;;12.33;10.63;;;;;;;12.14;94.41;95066.38;5074030;28;20792;-83
2023/05/07 02:55:22;;;;;;;11.37;10.27;;;;;;;12.14;94.67;95069.03;5073872;28;20969;-81
2023/05/07 02:57:48;;;;;;;11.83;10.63;;;;;;;12.21;94.41;95071.00;5073943;28;20437;-82
2023/05/07 03:00:17;;;;;;;13.33;11.50;;;;;;;12.16;94.79;95054.78;5072940;28;20874;-82
2023/05/07 03:02:44;;;;;;;14.40;12.43;;;;;;;12.16;95.35;95059.22;5073796;28;20568;-82
2023/05/07 03:05:11;;;;;;;13.73;12.00;;;;;;;12.23;94.82;95055.91;5073586;28;20436;-82
2023/05/07 03:07:38;;;;;;;15.60;11.40;;;;;;;12.24;94.27;95062.81;5074070;28;20441;-81
2023/05/07 03:10:06;;;;;;;13.63;12.13;;;;;;;12.28;95.04;95064.22;5073977;28;20421;-81
2023/05/07 03:12:34;;;;;;;16.13;12.37;;;;;;;12.34;94.49;95066.28;5039272;28;20445;-82
2023/05/07 03:15:01;;;;;;;13.23;11.30;;;;;;;12.43;94.78;95074.34;5055119;28;20444;-81
2023/05/07 03:17:27;;;;;;;16.87;12.90;;;;;;;12.49;94.18;95063.28;5073818;28;20522;-82
2023/05/07 03:19:54;;;;;;;15.93;11.67;;;;;;;12.57;94.11;95073.94;5073422;28;21288;-82
2023/05/07 03:22:21;;;;;;;15.50;12.30;;;;;;;12.58;93.53;95078.25;5073210;28;20460;-81
2023/05/07 03:51:48;;;;;;;14.87;13.20;;;;;;;13.68;90.01;95094.50;5064926;28;20980;-82
2023/05/07 03:54:15;;;;;;;15.17;12.40;;;;;;;13.85;88.52;95094.56;5073149;28;20438;-82
2023/05/07 03:56:42;;;;;;;16.17;12.77;;;;;;;13.67;87.81;95093.66;5038343;28;20450;-82
2023/05/07 03:59:08;;;;;;;17.83;13.03;;;;;;;13.67;88.44;95096.31;5073398;28;20425;-82
2023/05/07 04:01:53;;;;;;;14.13;12.63;;;;;;;13.79;88.22;95096.94;5073044;28;20477;-82
2023/05/07 04:04:21;;;;;;;18.10;12.10;;;;;;;14.11;88.18;95096.53;5037596;28;20449;-82
2023/05/07 04:06:49;;;;;;;13.50;11.90;;;;;;;14.65;85.83;95111.53;5072835;28;20445;-82
2023/05/07 04:09:16;;;;;;;17.00;12.30;;;;;;;15.19;81.75;95117.66;5073199;28;20447;-82
2023/05/07 04:11:42;;;;;;;12.80;11.33;;;;;;;15.80;80.09;95115.00;5075122;28;20441;-82
2023/05/07 04:14:09;;;;;;;12.00;10.70;;;;;;;16.44;77.97;95123.41;5077386;28;20466;-82
2023/05/07 04:16:36;;;;;;;12.67;11.37;;;;;;;16.99;74.52;95122.91;5076922;28;21011;-82
2023/05/07 04:19:02;;;;;;;12.40;11.17;;;;;;;17.52;72.08;95126.94;5077197;28;20429;-82
2023/05/07 04:21:29;;;;;;;15.57;10.83;;;;;;;17.97;70.61;95134.38;5077106;28;20475;-83
2023/05/07 04:23:58;;;;;;;14.13;11.87;;;;;;;18.38;68.03;95127.09;5077128;28;20460;-84
2023/05/07 04:26:24;;;;;;;12.60;11.37;;;;;;;18.78;66.76;95130.59;5042184;28;20519;-83
2023/05/07 04:28:51;;;;;;;13.70;10.53;;;;;;;19.12;65.76;95136.41;5077555;28;20520;-83
2023/05/07 04:31:18;;;;;;;13.20;11.07;;;;;;;19.49;64.87;95143.63;5076626;28;20931;-83
2023/05/07 04:33:45;;;;;;;13.87;11.67;;;;;;;19.82;62.31;95137.22;5075071;28;20452;-82
2023/05/07 04:36:11;;;;;;;14.33;11.13;;;;;;;20.07;61.96;95141.31;5074209;28;20511;-82
2023/05/07 04:38:38;;;;;;;12.30;11.10;;;;;;;20.26;61.05;95148.78;5065208;28;20465;-82
2023/05/07 04:41:07;;;;;;;13.93;11.90;;;;;;;20.38;59.69;95149.13;5056373;28;20490;-82
2023/05/07 04:43:34;;;;;;;14.00;11.60;;;;;;;20.44;60.52;95156.41;5056596;28;20476;-82
2023/05/07 04:46:01;;;;;;;11.97;10.70;;;;;;;20.59;60.95;95154.59;5055853;28;20503;-83
2023/05/07 04:48:28;;;;;;;13.33;11.30;;;;;;;20.77;60.25;95154.19;5056126;28;20542;-82
2023/05/07 04:50:55;;;;;;;12.83;11.23;;;;;;;21.02;59.46;95146.69;5057346;28;20508;-83
2023/05/07 04:53:22;;;;;;;12.20;10.90;;;;;;;21.23;59.05;95148.56;5076144;28;20524;-83
2023/05/07 04:55:49;;;;;;;12.20;10.37;;;;;;;21.43;58.40;95156.81;5057681;28;20522;-83
2023/05/07 04:58:17;;;;;;;12.00;10.63;;;;;;;21.61;56.83;95151.84;5040730;28;20484;-81
2023/05/07 05:00:43;;;;;;;13.90;12.50;;;;;;;21.83;57.32;95144.66;5076362;28;20475;-82
2023/05/07 05:03:10;;;;;;;13.70;11.10;;;;;;;22.02;55.54;95143.16;5076011;28;20459;-82
2023/05/07 05:05:37;;;;;;;11.77;10.57;;;;;;;22.24;55.30;95150.94;5076177;28;20548;-82
2023/05/07 05:08:04;;;;;;;11.80;10.00;;;;;;;22.41;54.32;95147.97;5041109;28;20953;-81
2023/05/07 05:10:31;;;;;;;14.83;11.40;;;;;;;22.59;54.46;95142.13;5076619;28;20837;-82
2023/05/07 05:12:58;;;;;;;11.50;10.43;;;;;;;22.72;53.30;95147.53;5076172;28;20501;-83
2023/05/07 05:15:26;;;;;;;13.00;11.70;;;;;;;22.66;52.90;95134.94;5057724;28;20925;-82
2023/05/07 05:17:53;;;;;;;12.13;10.70;;;;;;;22.65;52.97;95133.28;5076352;28;20474;-83
2023/05/07 05:20:19;;;;;;;13.63;10.87;;;;;;;22.53;53.86;95130.34;5076127;28;20981;-81
2023/05/07 05:22:46;;;;;;;15.20;11.67;;;;;;;22.51;54.66;95127.03;5075480;28;20435;-82
2023/05/07 05:25:13;;;;;;;14.90;10.60;;;;;;;22.68;54.67;95133.72;5075872;28;20895;-81
2023/05/07 05:27:40;;;;;;;12.23;9.60;;;;;;;22.89;57.16;95140.03;5075944;28;20486;-82
2023/05/07 05:30:08;;;;;;;15.23;11.10;;;;;;;23.17;63.51;95140.75;5075982;28;20783;-82
2023/05/07 05:35:57;;;;;;;15.00;10.83;;;;;;;23.63;55.70;95145.38;5075176;28;20488;-83
2023/05/07 05:38:24;;;;;;;13.50;11.00;;;;;;;23.84;56.19;95145.22;5076271;28;20503;-83
2023/05/07 05:40:51;;;;;;;14.20;11.40;;;;;;;23.95;52.95;95147.25;5075368;28;20472;-83
2023/05/07 05:43:18;;;;;;;12.10;10.90;;;;;;;23.99;52.32;95142.31;5057061;28;20443;-82
2023/05/07 05:45:44;;;;;;;15.70;10.70;;;;;;;24.12;54.25;95147.69;5040605;28;20497;-82
2023/05/07 05:48:17;;;;;;;12.03;10.87;;;;;;;24.34;50.62;95142.97;5075463;28;20448;-83
2023/05/07 05:50:43;;;;;;;16.80;11.03;;;;;;;24.32;49.39;95140.47;5075387;28;20529;-83
2023/05/07 05:53:12;;;;;;;11.57;9.63;;;;;;;23.80;49.83;95141.28;5075251;28;20492;-81
2023/05/07 05:55:39;;;;;;;10.73;9.63;;;;;;;23.55;50.66;95145.56;5040540;28;20520;-82
2023/05/07 05:58:05;;;;;;;12.40;10.20;;;;;;;23.61;50.27;95139.41;5075032;28;20450;-84
2023/05/07 06:00:32;;;;;;;12.60;9.40;;;;;;;23.45;50.61;95141.44;5074855;28;20475;-82
2023/05/07 06:02:59;;;;;;;11.60;10.20;;;;;;;23.37;51.26;95138.09;5040282;28;20909;-82
2023/05/07 06:05:26;;;;;;;12.83;11.33;;;;;;;23.09;51.64;95140.91;5074721;28;20446;-83
2023/05/07 06:07:53;;;;;;;13.50;11.80;;;;;;;23.24;52.01;95144.25;5056554;28;20450;-83
2023/05/07 06:10:21;;;;;;;12.13;10.07;;;;;;;23.26;51.73;95144.88;5075085;28;20450;-82
2023/05/07 06:12:48;;;;;;;12.37;11.03;;;;;;;23.48;51.35;95146.38;5074676;28;20446;-82
2023/05/07 06:15:14;;;;;;;10.87;9.43;;;;;;;23.62;51.12;95143.75;5074634;28;20452;-81
2023/05/07 06:17:41;;;;;;;12.53;10.43;;;;;;;23.91;51.54;95151.38;5074854;28;20459;-80
2023/05/07 06:20:09;;;;;;;10.63;9.20;;;;;;;24.15;49.52;95149.94;5074532;28;20577;-83
2023/05/07 06:22:36;;;;;;;12.63;9.27;;;;;;;24.29;48.19;95142.75;5039298;28;20451;-83
2023/05/07 06:25:02;;;;;;;10.57;9.50;;;;;;;24.42;49.61;95141.91;5074635;28;20447;-82
2023/05/07 06:27:30;;;;;;;11.13;9.90;;;;;;;23.90;50.48;95139.03;5073852;28;20448;-81
2023/05/07 06:29:57;;;;;;;11.73;10.53;;;;;;;23.97;51.04;95136.34;5075293;28;20502;-81
2023/05/07 06:32:24;;;;;;;10.90;9.40;;;;;;;24.14;53.58;95134.06;5074494;28;20436;-82
2023/05/07 06:34:51;;;;;;;12.07;9.70;;;;;;;24.38;51.27;95133.44;5074202;28;20921;-81
2023/05/07 06:37:24;;;;;;;10.97;9.87;;;;;;;24.73;48.69;95127.78;5074645;28;20857;-82
2023/05/07 06:39:50;;;;;;;11.17;9.73;;;;;;;24.68;47.48;95121.19;5039557;28;20501;-81
2023/05/07 06:42:17;;;;;;;11.27;9.80;;;;;;;24.72;48.15;95118.91;5074453;28;20549;-81
2023/05/07 06:44:45;;;;;;;11.40;9.33;;;;;;;24.92;48.08;95121.53;5074450;28;21035;-81
2023/05/07 06:47:12;;;;;;;11.90;9.60;;;;;;;24.83;48.15;95117.41;5073650;28;20443;-81
2023/05/07 06:49:39;;;;;;;11.67;10.30;;;;;;;24.08;48.44;95114.28;5055473;28;20451;-84
2023/05/07 06:52:05;;;;;;;13.73;11.10;;;;;;;23.91;49.45;95108.50;5055083;28;20918;-81
2023/05/07 06:54:32;;;;;;;15.97;9.87;;;;;;;24.21;49.95;95108.06;5038858;28;20926;-81
2023/05/07 06:56:59;;;;;;;14.17;8.97;;;;;;;24.42;48.46;95105.16;5074179;28;20440;-81
2023/05/07 06:59:26;;;;;;;9.77;8.77;;;;;;;24.70;49.43;95103.03;5074031;28;20505;-81
2023/05/07 07:01:54;;;;;;;11.43;7.77;;;;;;;24.84;47.33;95095.72;5073923;28;20480;-81
2023/05/07 07:04:22;;;;;;;11.90;10.10;;;;;;;24.83;47.61;95106.69;5055498;28;20501;-81
2023/05/07 07:06:48;;;;;;;9.27;8.43;;;;;;;24.89;47.49;95089.75;5038997;28;20542;-81
2023/05/07 07:09:18;;;;;;;11.10;9.43;;;;;;;24.89;47.50;95097.78;5073913;28;20756;-81
2023/05/07 07:11:45;;;;;;;9.80;8.87;;;;;;;24.48;48.86;95107.00;5073441;28;20428;-82
2023/05/07 07:14:12;;;;;;;11.73;8.40;;;;;;;24.36;48.71;95104.16;5072227;28;20463;-80
2023/05/07 07:16:39;;;;;;;11.10;8.73;;;;;;;24.58;48.55;95094.00;5037358;28;20490;-81
2023/05/07 07:19:07;;;;;;;9.63;8.30;;;;;;;24.80;48.38;95096.38;5072497;28;20807;-81
2023/05/07 07:21:34;;;;;;;9.43;8.43;;;;;;;24.92;47.28;95087.44;5071996;28;20487;-81
2023/05/07 07:24:01;;;;;;;10.67;8.33;;;;;;;25.27;47.63;95089.75;5072175;28;20458;-81
2023/05/07 07:26:28;;;;;;;14.90;10.40;;;;;;;25.66;45.38;95091.34;5071982;28;20527;-81
2023/05/07 07:28:54;;;;;;;9.37;8.47;;;;;;;25.79;44.80;95085.91;5053454;28;20436;-81
2023/05/07 07:31:21;;;;;;;9.43;7.83;;;;;;;25.45;45.06;95089.88;5072138;28;20470;-81
2023/05/07 07:33:49;;;;;;;9.90;8.07;;;;;;;25.21;45.37;95077.19;5072310;28;20502;-81
2023/05/07 07:36:22;;;;;;;8.20;7.43;;;;;;;24.58;45.59;95088.63;5071970;28;20582;-81
2023/05/07 07:38:49;;;;;;;12.70;9.37;;;;;;;24.47;46.52;95093.81;5072344;28;20455;-81
2023/05/07 07:41:16;;;;;;;9.47;8.47;;;;;;;24.40;46.88;95089.28;5072245;28;20553;-81
2023/05/07 07:43:43;;;;;;;9.37;8.43;;;;;;;24.15;48.54;95095.50;5053378;28;20452;-81
2023/05/07 07:46:09;;;;;;;8.90;7.90;;;;;;;24.01;48.06;95100.88;5071380;28;20501;-81
2023/05/07 07:48:36;;;;;;;11.60;9.27;;;;;;;23.49;48.58;95094.47;5071963;28;20542;-81
2023/05/07 07:51:03;;;;;;;10.60;9.40;;;;;;;23.55;51.11;95091.97;5072001;28;20474;-81
2023/05/07 07:53:31;;;;;;;8.10;7.40;;;;;;;23.82;49.96;95093.66;5072084;28;20504;-81
2023/05/07 07:55:58;;;;;;;8.30;7.50;;;;;;;24.10;49.23;95102.31;5072026;28;20447;-81
2023/05/07 07:58:25;;;;;;;11.47;8.50;;;;;;;24.27;48.47;95099.16;5072025;28;20447;-82
2023/05/07 08:00:52;;;;;;;10.40;7.63;;;;;;;24.00;48.75;95101.91;5072309;28;20472;-81
2023/05/07 08:03:19;;;;;;;11.20;7.70;;;;;;;24.01;47.88;95100.88;5071815;28;20508;-82
2023/05/07 08:05:46;;;;;;;10.90;7.50;;;;;;;23.97;48.42;95105.00;5036834;28;20451;-81
2023/05/07 08:08:13;;;;;;;8.27;7.57;;;;;;;24.02;47.88;95097.16;5071969;28;20444;-81
2023/05/07 08:10:43;;;;;;;10.70;8.50;;;;;;;24.02;47.34;95097.16;5071783;28;20443;-81
2023/05/07 08:13:10;;;;;;;14.43;7.13;;;;;;;23.87;48.45;95090.38;5072014;28;20466;-81
2023/05/07 08:15:37;;;;;;;11.50;8.20;;;;;;;23.91;49.05;95087.06;5071917;28;20937;-81
2023/05/07 08:18:04;;;;;;;9.00;8.10;;;;;;;24.07;47.77;95092.00;5071273;28;20438;-82
2023/05/07 08:20:30;;;;;;;9.93;8.47;;;;;;;24.17;48.13;95090.75;5071756;28;20249;-82
2023/05/07 08:22:57;;;;;;;9.77;7.87;;;;;;;24.30;47.60;95082.72;5052674;28;20527;-82
2023/05/07 08:25:24;;;;;;;11.70;8.83;;;;;;;24.44;47.47;95081.63;5071940;28;20446;-82
2023/05/07 08:27:52;;;;;;;9.33;8.43;;;;;;;24.57;48.47;95089.63;5071720;28;20471;-81
2023/05/07 08:30:19;;;;;;;9.50;8.43;;;;;;;24.74;49.10;95083.81;5071724;28;20452;-81
2023/05/07 08:32:46;;;;;;;16.30;9.37;;;;;;;24.80;48.97;95081.09;5071693;28;20444;-82
2023/05/07 08:35:15;;;;;;;13.37;9.50;;;;;;;24.68;49.90;95085.47;5071534;28;20935;-82
2023/05/07 08:37:42;;;;;;;10.60;8.83;;;;;;;24.70;51.50;95073.50;5071510;28;20455;-82
2023/05/07 08:40:09;;;;;;;11.30;10.30;;;;;;;24.80;48.59;95078.41;5071389;28;20459;-82
2023/05/07 08:42:37;;;;;;;14.03;8.73;;;;;;;24.78;48.46;95076.97;5071397;28;20877;-82
2023/05/07 08:45:13;;;;;;;10.23;9.03;;;;;;;24.77;48.95;95069.94;5071926;28;20527;-82
2023/05/07 08:47:45;;;;;;;10.50;8.53;;;;;;;24.17;48.25;95069.28;5071465;28;20448;-81
2023/05/07 08:50:12;;;;;;;15.57;9.07;;;;;;;24.28;49.25;95066.81;5071259;28;20860;-81
2023/05/07 08:52:40;;;;;;;10.73;8.10;;;;;;;24.26;47.39;95073.38;5071704;28;20518;-82
2023/05/07 08:55:09;;;;;;;8.27;7.47;;;;;;;24.40;48.61;95073.19;5071200;28;20934;-81
2023/05/07 08:57:36;;;;;;;9.80;7.37;;;;;;;24.58;45.64;95061.78;5071651;28;20497;-82
2023/05/07 09:00:03;;;;;;;13.00;8.13;;;;;;;24.59;45.38;95058.06;5074517;28;20447;-82
2023/05/07 09:02:31;;;;;;;7.37;6.20;;;;;;;24.29;44.34;95059.63;5074655;28;20545;-82
2023/05/07 09:04:58;;;;;;;8.80;5.67;;;;;;;24.22;44.19;95058.75;5075065;28;20444;-82
2023/05/07 09:07:26;;;;;;;8.10;6.20;;;;;;;24.15;45.09;95050.72;5075101;28;20861;-82
2023/05/07 09:09:53;;;;;;;7.70;6.10;;;;;;;24.17;45.77;95051.34;5074533;28;20535;-81
2023/05/07 09:12:20;;;;;;;8.83;6.23;;;;;;;24.17;44.91;95055.88;5074500;28;20914;-81
2023/05/07 09:14:47;;;;;;;9.40;6.40;;;;;;;24.18;43.42;95041.44;5075079;28;20448;-82
2023/05/07 09:17:14;;;;;;;8.67;7.07;;;;;;;24.35;43.87;95050.72;5039123;28;20489;-82
2023/05/07 09:19:42;;;;;;;7.13;6.40;;;;;;;24.57;44.87;95052.06;5074856;28;20854;-82
2023/05/07 09:22:09;;;;;;;7.60;6.10;;;;;;;24.77;45.50;95049.31;5074224;28;20488;-81
2023/05/07 09:24:37;;;;;;;7.60;6.47;;;;;;;24.86;42.26;95047.19;5074680;28;20845;-81
2023/05/07 09:27:05;;;;;;;11.00;6.10;;;;;;;24.77;42.28;95041.25;5074628;28;20455;-82
2023/05/07 09:29:35;;;;;;;7.43;6.40;;;;;;;24.50;42.57;95037.84;5074596;28;20764;-82
2023/05/07 09:32:02;;;;;;;7.93;6.63;;;;;;;24.35;43.40;95040.00;5074227;28;20490;-82
2023/05/07 09:34:30;;;;;;;7.17;5.70;;;;;;;24.30;42.59;95029.06;5074361;28;21029;-82
2023/05/07 09:36:59;;;;;;;8.03;5.93;;;;;;;24.18;42.97;95033.41;5074178;28;20922;-82
2023/05/07 09:39:26;;;;;;;7.23;5.67;;;;;;;24.10;42.04;95031.78;5074302;28;20457;-82
2023/05/07 09:41:54;;;;;;;6.40;5.90;;;;;;;24.10;42.16;95021.88;5074162;28;20486;-81
2023/05/07 09:44:22;;;;;;;6.60;5.40;;;;;;;24.25;42.50;95018.09;5055360;28;20512;-82
2023/05/07 09:46:55;;;;;;;6.10;5.50;;;;;;;24.27;40.55;95032.13;5074923;28;20891;-81
2023/05/07 09:49:24;;;;;;;6.73;5.57;;;;;;;24.25;42.08;95023.47;5075427;28;20425;-84
2023/05/07 09:51:52;;;;;;;5.60;5.10;;;;;;;24.28;41.24;95009.66;5075319;28;20506;-84
2023/05/07 09:54:20;;;;;;;6.20;5.60;;;;;;;24.24;41.47;95019.13;5074264;28;20491;-85
2023/05/07 09:56:49;;;;;;;13.90;5.80;;;;;;;23.87;40.35;95016.13;5075399;28;20441;-84
2023/05/07 09:59:17;;;;;;;6.40;5.07;;;;;;;24.03;40.41;95025.59;5075539;28;20482;-84
2023/05/07 10:01:45;;;;;;;6.57;5.97;;;;;;;24.04;40.00;95014.66;5074763;28;20527;-83
2023/05/07 10:04:13;;;;;;;7.37;5.03;;;;;;;23.92;38.55;95008.28;5074934;28;20919;-83
2023/05/07 10:06:40;;;;;;;5.50;5.00;;;;;;;23.77;39.36;95005.84;5075587;28;20798;-83
2023/05/07 10:09:07;;;;;;;8.13;5.17;;;;;;;23.81;39.05;95000.91;5074927;28;20431;-83
2023/05/07 10:25:03;;;;;;;7.50;4.57;;;;;;;23.29;38.43;94989.16;5054261;28;20392;-83
2023/05/07 10:27:31;;;;;;;5.77;4.50;;;;;;;23.43;37.67;94990.81;5054803;28;20434;-82
2023/05/07 10:30:08;;;;;;;5.10;4.60;;;;;;;23.57;39.96;94988.16;5054466;28;20926;-82
2023/05/07 10:32:40;;;;;;;4.40;4.00;;;;;;;23.71;39.76;94984.44;5036400;28;20443;-82
2023/05/07 10:35:19;;;;;;;10.03;4.47;;;;;;;23.81;38.09;94974.09;5055969;28;20445;-85
2023/05/07 10:37:47;;;;;;;5.40;4.90;;;;;;;23.77;38.08;94971.00;5057706;28;20460;-82
2023/05/07 10:40:17;;;;;;;5.40;4.97;;;;;;;23.81;40.50;94965.22;5058558;28;20483;-84
2023/05/07 10:42:55;;;;;;;8.37;6.10;;;;;;;23.84;39.93;94968.31;5054521;28;20511;-83
2023/05/07 10:45:23;;;;;;;7.43;5.40;;;;;;;23.89;39.87;94968.50;5061231;28;20507;-82
2023/05/07 10:48:12;;;;;;;5.20;4.80;;;;;;;23.94;39.22;94968.69;5057802;28;20506;-82
2023/05/07 10:50:40;;;;;;;6.60;5.20;;;;;;;23.91;39.71;94949.53;5057001;28;20465;-83
2023/05/07 10:53:28;;;;;;;7.30;5.17;;;;;;;23.97;39.09;94972.81;5056889;28;20769;-82
2023/05/07 10:56:28;;;;;;;5.83;5.20;;;;;;;24.00;39.10;94965.19;5057775;28;20468;-83
2023/05/07 10:58:55;;;;;;;9.03;5.67;;;;;;;24.03;39.43;94962.09;5034940;28;20443;-81
2023/05/07 11:02:16;;;;;;;;;;;;;;;;;;;;;
2023/05/07 11:05:29;;;;;;;6.50;6.00;;;;;;;23.56;40.16;94962.38;4987801;28;20533;-82
2023/05/07 11:11:06;;;;;;;6.70;6.17;;;;;;;23.57;41.35;94961.34;4958521;29;20492;-82
2023/05/07 11:14:31;;;;;;;;;;;;;;;;;;;;;
2023/05/07 11:17:26;;;;;;;6.03;5.53;;;;;;;23.58;40.45;94954.97;4844192;29;20452;-83
2023/05/07 11:19:55;;;;;;;8.40;6.77;;;;;;;23.66;41.82;94957.41;4828774;29;20446;-82
2023/05/07 11:22:39;;;;;;;6.53;5.70;;;;;;;23.84;41.08;94959.44;4859295;29;20507;-82
2023/05/07 11:25:07;;;;;;;7.63;6.40;;;;;;;23.97;40.44;94954.03;4859619;29;20481;-83
2023/05/07 11:27:34;;;;;;;6.57;5.97;;;;;;;24.07;38.94;94949.91;4860220;29;20914;-82
2023/05/07 11:30:01;;;;;;;7.30;5.70;;;;;;;24.19;39.78;94938.50;4859729;29;20973;-82
2023/05/07 11:32:31;;;;;;;7.60;6.80;;;;;;;24.01;39.30;94945.38;4860089;29;20538;-83
2023/05/07 11:34:59;;;;;;;10.90;6.23;;;;;;;24.04;39.53;94949.50;4865649;29;20464;-82
2023/05/07 11:37:28;;;;;;;6.67;6.03;;;;;;;24.21;40.36;94941.78;4896583;29;21020;-83
2023/05/07 11:50:07;;;;;;;17.03;9.30;;;;;;;24.71;38.35;94940.13;5053316;28;20440;-83
2023/05/07 11:52:34;;;;;;;7.37;6.47;;;;;;;24.76;39.04;94934.09;5053098;28;20481;-83
2023/05/07 11:55:16;;;;;;;7.83;7.03;;;;;;;24.83;38.05;94935.69;5053730;28;20429;-83
2023/05/07 11:57:43;;;;;;;6.57;5.97;;;;;;;24.93;38.19;94932.56;5053777;28;20980;-83
2023/05/07 12:00:11;;;;;;;6.10;5.70;;;;;;;25.00;38.11;94930.66;5053071;28;20854;-83
2023/05/07 12:02:38;;;;;;;6.43;5.90;;;;;;;25.06;37.39;94935.16;5053299;28;20481;-83
2023/05/07 12:05:07;;;;;;;7.30;5.70;;;;;;;25.02;36.41;94928.56;5053128;28;20827;-83
2023/05/07 12:07:35;;;;;;;7.60;6.80;;;;;;;24.95;36.99;94917.03;5052934;28;20515;-83
2023/05/07 12:10:05;;;;;;;7.27;6.57;;;;;;;24.55;37.09;94922.66;5053176;28;20945;-83
2023/05/07 12:12:38;;;;;;;8.33;6.10;;;;;;;23.96;39.17;94907.66;5063875;28;20501;-82
2023/05/07 12:15:06;;;;;;;7.00;6.30;;;;;;;24.01;38.78;94915.09;5072832;28;20437;-82
2023/05/07 12:17:33;;;;;;;10.93;6.30;;;;;;;23.79;38.91;94906.50;5038380;28;20447;-82
2023/05/07 12:20:00;;;;;;;7.07;6.47;;;;;;;23.93;39.34;94910.75;5073109;28;20451;-82
2023/05/07 12:22:29;;;;;;;7.77;6.07;;;;;;;23.87;38.40;94903.56;5073254;28;20475;-82
2023/05/07 12:24:58;;;;;;;9.43;6.73;;;;;;;23.75;38.94;94906.09;5038313;28;20490;-82
2023/05/07 12:34:08;;;;;;;9.30;7.13;;;;;;;23.56;39.62;94884.69;5076727;28;20450;-82
2023/05/07 12:36:39;;;;;;;15.70;6.07;;;;;;;23.50;39.54;94883.66;5076606;28;20876;-82
2023/05/07 12:39:08;;;;;;;8.03;6.93;;;;;;;23.53;39.82;94880.56;5076647;28;20513;-82
2023/05/07 12:41:52;;;;;;;7.97;5.90;;;;;;;23.53;38.82;94877.88;5077063;28;20463;-82
2023/05/07 12:44:19;;;;;;;6.70;6.10;;;;;;;23.62;38.79;94878.50;5076846;28;20478;-82
2023/05/07 12:46:47;;;;;;;6.93;6.33;;;;;;;23.69;39.41;94873.94;5077671;28;20442;-83
2023/05/07 12:49:14;;;;;;;9.17;6.00;;;;;;;23.78;40.50;94872.69;5076469;28;20509;-82
2023/05/07 12:51:41;;;;;;;7.33;6.63;;;;;;;23.90;38.62;94865.63;5076430;28;20475;-82